sensor_id;sensor_type;location;lat;lon;timestamp;pressure;altitude;pressure_sealevel;temperature;humidity
57600;BME280;43426;43.594;24.334;2023-04-28T00:01:47;101447.19;;;7.05;64.81
57600;BME280;43426;43.594;24.334;2023-04-28T00:04:12;101472.53;;;7.12;65.02
57600;BME280;43426;43.594;24.334;2023-04-28T00:06:38;101471.44;;;7.14;66.07
57600;BME280;43426;43.594;24.334;2023-04-28T00:09:05;101452.16;;;6.88;66.83
57600;BME280;43426;43.594;24.334;2023-04-28T00:11:32;101453.63;;;6.81;66.76
57600;BME280;43426;43.594;24.334;2023-04-28T00:13:57;101453.44;;;6.73;67.87
57600;BME280;43426;43.594;24.334;2023-04-28T00:16:22;101450.53;;;6.64;68.56
57600;BME280;43426;43.594;24.334;2023-04-28T00:18:48;101478.31;;;6.75;67.24
57600;BME280;43426;43.594;24.334;2023-04-28T00:21:13;101481.81;;;6.75;67.79
57600;BME280;43426;43.594;24.334;2023-04-28T00:23:39;101487.56;;;7.03;66.60
57600;BME280;43426;43.594;24.334;2023-04-28T00:26:04;101451.16;;;6.68;67.44
57600;BME280;43426;43.594;24.334;2023-04-28T00:28:30;101494.56;;;6.94;68.51
57600;BME280;43426;43.594;24.334;2023-04-28T00:30:55;101493.84;;;6.60;69.71
57600;BME280;43426;43.594;24.334;2023-04-28T00:33:21;101488.53;;;6.37;70.95
57600;BME280;43426;43.594;24.334;2023-04-28T00:35:46;101504.03;;;6.22;73.03
57600;BME280;43426;43.594;24.334;2023-04-28T00:38:11;101494.34;;;6.42;72.07
57600;BME280;43426;43.594;24.334;2023-04-28T00:40:37;101477.28;;;6.00;73.02
57600;BME280;43426;43.594;24.334;2023-04-28T00:43:03;101498.03;;;5.96;74.50
57600;BME280;43426;43.594;24.334;2023-04-28T00:45:30;101507.94;;;5.95;75.05
57600;BME280;43426;43.594;24.334;2023-04-28T00:47:55;101508.88;;;5.83;75.12
57600;BME280;43426;43.594;24.334;2023-04-28T00:50:22;101515.09;;;5.84;75.04
57600;BME280;43426;43.594;24.334;2023-04-28T00:52:50;101510.94;;;5.68;76.41
57600;BME280;43426;43.594;24.334;2023-04-28T00:55:16;101517.38;;;5.66;76.92
57600;BME280;43426;43.594;24.334;2023-04-28T00:57:42;101487.19;;;5.52;75.68
57600;BME280;43426;43.594;24.334;2023-04-28T01:00:08;101511.91;;;5.67;75.95
57600;BME280;43426;43.594;24.334;2023-04-28T01:02:37;101496.41;;;5.48;76.21
57600;BME280;43426;43.594;24.334;2023-04-28T01:05:03;101498.00;;;5.39;76.69
57600;BME280;43426;43.594;24.334;2023-04-28T01:07:30;101524.50;;;5.42;77.57
57600;BME280;43426;43.594;24.334;2023-04-28T01:09:55;101499.69;;;5.29;78.02
57600;BME280;43426;43.594;24.334;2023-04-28T01:12:21;101512.34;;;5.38;78.85
57600;BME280;43426;43.594;24.334;2023-04-28T01:14:48;101511.25;;;5.41;78.92
57600;BME280;43426;43.594;24.334;2023-04-28T01:17:14;101514.69;;;5.43;78.51
57600;BME280;43426;43.594;24.334;2023-04-28T01:19:39;101503.72;;;5.35;78.74
57600;BME280;43426;43.594;24.334;2023-04-28T01:22:05;101459.34;;;4.97;80.18
57600;BME280;43426;43.594;24.334;2023-04-28T01:24:32;101501.09;;;5.22;80.03
57600;BME280;43426;43.594;24.334;2023-04-28T01:26:58;101523.13;;;5.25;79.67
57600;BME280;43426;43.594;24.334;2023-04-28T01:29:23;101519.69;;;5.12;79.38
57600;BME280;43426;43.594;24.334;2023-04-28T01:31:49;101497.28;;;5.02;79.08
57600;BME280;43426;43.594;24.334;2023-04-28T01:34:14;101472.47;;;5.00;78.24
57600;BME280;43426;43.594;24.334;2023-04-28T01:36:39;101517.31;;;5.32;76.66
57600;BME280;43426;43.594;24.334;2023-04-28T01:39:05;101510.41;;;5.29;78.26
57600;BME280;43426;43.594;24.334;2023-04-28T01:41:31;101493.59;;;4.91;79.16
57600;BME280;43426;43.594;24.334;2023-04-28T01:43:58;101496.91;;;4.95;78.71
57600;BME280;43426;43.594;24.334;2023-04-28T01:46:24;101526.06;;;4.98;79.81
57600;BME280;43426;43.594;24.334;2023-04-28T01:48:50;101496.84;;;4.59;81.07
57600;BME280;43426;43.594;24.334;2023-04-28T01:51:15;101519.34;;;4.57;81.99
57600;BME280;43426;43.594;24.334;2023-04-28T01:53:40;101521.72;;;4.49;82.77
57600;BME280;43426;43.594;24.334;2023-04-28T01:56:06;101533.13;;;4.51;82.75
57600;BME280;43426;43.594;24.334;2023-04-28T01:58:31;101528.84;;;4.48;83.24
57600;BME280;43426;43.594;24.334;2023-04-28T02:00:57;101536.25;;;4.45;83.64
57600;BME280;43426;43.594;24.334;2023-04-28T02:03:22;101538.22;;;4.30;84.43
57600;BME280;43426;43.594;24.334;2023-04-28T02:05:48;101527.97;;;4.23;84.45
57600;BME280;43426;43.594;24.334;2023-04-28T02:08:14;101510.28;;;3.97;85.25
57600;BME280;43426;43.594;24.334;2023-04-28T02:10:39;101544.47;;;4.04;85.76
57600;BME280;43426;43.594;24.334;2023-04-28T02:13:05;101523.09;;;4.04;85.96
57600;BME280;43426;43.594;24.334;2023-04-28T02:15:31;101527.75;;;4.26;85.04
57600;BME280;43426;43.594;24.334;2023-04-28T02:17:56;101542.72;;;4.16;84.79
57600;BME280;43426;43.594;24.334;2023-04-28T02:20:22;101507.19;;;3.90;85.42
57600;BME280;43426;43.594;24.334;2023-04-28T02:22:47;101531.50;;;4.24;84.05
57600;BME280;43426;43.594;24.334;2023-04-28T02:25:13;101555.00;;;4.19;84.16
57600;BME280;43426;43.594;24.334;2023-04-28T02:27:38;101528.53;;;3.90;84.83
57600;BME280;43426;43.594;24.334;2023-04-28T02:30:05;101569.03;;;3.97;85.48
57600;BME280;43426;43.594;24.334;2023-04-28T02:32:31;101567.09;;;3.99;86.02
57600;BME280;43426;43.594;24.334;2023-04-28T02:34:56;101573.72;;;3.93;86.54
57600;BME280;43426;43.594;24.334;2023-04-28T02:37:22;101530.91;;;3.69;86.86
57600;BME280;43426;43.594;24.334;2023-04-28T02:39:47;101578.09;;;4.07;85.94
57600;BME280;43426;43.594;24.334;2023-04-28T02:42:13;101558.22;;;3.98;85.41
57600;BME280;43426;43.594;24.334;2023-04-28T02:44:38;101554.47;;;4.14;84.23
57600;BME280;43426;43.594;24.334;2023-04-28T02:47:04;101558.31;;;4.09;84.45
57600;BME280;43426;43.594;24.334;2023-04-28T02:49:29;101536.44;;;3.91;84.37
57600;BME280;43426;43.594;24.334;2023-04-28T02:51:55;101567.84;;;4.01;85.24
57600;BME280;43426;43.594;24.334;2023-04-28T02:54:20;101587.09;;;4.06;85.87
57600;BME280;43426;43.594;24.334;2023-04-28T02:56:52;101559.19;;;3.84;87.88
57600;BME280;43426;43.594;24.334;2023-04-28T02:59:18;101560.69;;;4.14;87.15
57600;BME280;43426;43.594;24.334;2023-04-28T03:01:44;101537.19;;;4.06;87.19
57600;BME280;43426;43.594;24.334;2023-04-28T03:04:10;101590.34;;;4.35;86.97
57600;BME280;43426;43.594;24.334;2023-04-28T03:06:35;101602.13;;;4.20;88.29
57600;BME280;43426;43.594;24.334;2023-04-28T03:09:00;101603.63;;;4.11;87.48
57600;BME280;43426;43.594;24.334;2023-04-28T03:11:26;101586.00;;;3.96;88.03
57600;BME280;43426;43.594;24.334;2023-04-28T03:13:51;101604.72;;;4.08;88.16
57600;BME280;43426;43.594;24.334;2023-04-28T03:16:17;101588.38;;;4.00;88.11
57600;BME280;43426;43.594;24.334;2023-04-28T03:18:42;101615.28;;;4.10;88.60
57600;BME280;43426;43.594;24.334;2023-04-28T03:21:07;101568.06;;;3.72;88.17
57600;BME280;43426;43.594;24.334;2023-04-28T03:23:33;101611.97;;;3.94;88.38
57600;BME280;43426;43.594;24.334;2023-04-28T03:25:58;101626.28;;;3.92;88.45
57600;BME280;43426;43.594;24.334;2023-04-28T03:28:24;101628.00;;;3.94;89.39
57600;BME280;43426;43.594;24.334;2023-04-28T03:30:49;101633.94;;;3.97;90.04
57600;BME280;43426;43.594;24.334;2023-04-28T03:33:14;101628.09;;;4.05;89.78
57600;BME280;43426;43.594;24.334;2023-04-28T03:35:40;101630.22;;;4.25;89.05
57600;BME280;43426;43.594;24.334;2023-04-28T03:38:05;101603.63;;;3.98;89.00
57600;BME280;43426;43.594;24.334;2023-04-28T03:40:31;101642.72;;;4.12;88.82
57600;BME280;43426;43.594;24.334;2023-04-28T03:42:56;101615.47;;;4.07;88.80
57600;BME280;43426;43.594;24.334;2023-04-28T03:45:22;101616.22;;;4.09;89.54
57600;BME280;43426;43.594;24.334;2023-04-28T03:47:47;101627.31;;;4.03;91.26
57600;BME280;43426;43.594;24.334;2023-04-28T03:50:15;101629.47;;;3.98;91.45
57600;BME280;43426;43.594;24.334;2023-04-28T03:52:41;101651.19;;;4.06;91.18
57600;BME280;43426;43.594;24.334;2023-04-28T03:55:06;101667.53;;;4.14;92.40
57600;BME280;43426;43.594;24.334;2023-04-28T03:57:32;101642.63;;;4.01;92.04
57600;BME280;43426;43.594;24.334;2023-04-28T03:59:57;101664.09;;;4.25;92.16
57600;BME280;43426;43.594;24.334;2023-04-28T04:02:22;101672.22;;;4.36;91.63
57600;BME280;43426;43.594;24.334;2023-04-28T04:04:48;101630.97;;;4.02;91.44
57600;BME280;43426;43.594;24.334;2023-04-28T04:07:13;101664.75;;;4.29;90.42
57600;BME280;43426;43.594;24.334;2023-04-28T04:09:39;101682.59;;;4.41;89.78
57600;BME280;43426;43.594;24.334;2023-04-28T04:12:04;101681.19;;;4.48;89.67
57600;BME280;43426;43.594;24.334;2023-04-28T04:14:30;101669.66;;;4.35;89.64
57600;BME280;43426;43.594;24.334;2023-04-28T04:16:56;101685.91;;;4.45;90.00
57600;BME280;43426;43.594;24.334;2023-04-28T04:19:22;101683.09;;;4.33;90.92
57600;BME280;43426;43.594;24.334;2023-04-28T04:21:50;101691.13;;;4.59;90.96
57600;BME280;43426;43.594;24.334;2023-04-28T04:24:16;101682.03;;;4.62;90.81
57600;BME280;43426;43.594;24.334;2023-04-28T04:26:41;101646.09;;;4.66;89.67
57600;BME280;43426;43.594;24.334;2023-04-28T04:29:06;101692.97;;;5.33;88.59
57600;BME280;43426;43.594;24.334;2023-04-28T04:31:32;101693.25;;;5.65;86.81
57600;BME280;43426;43.594;24.334;2023-04-28T04:33:57;101688.78;;;5.77;84.98
57600;BME280;43426;43.594;24.334;2023-04-28T04:36:23;101697.53;;;5.68;84.39
57600;BME280;43426;43.594;24.334;2023-04-28T04:38:48;101672.53;;;5.56;83.91
57600;BME280;43426;43.594;24.334;2023-04-28T04:41:14;101670.97;;;5.65;82.99
57600;BME280;43426;43.594;24.334;2023-04-28T04:43:39;101684.88;;;5.70;82.79
57600;BME280;43426;43.594;24.334;2023-04-28T04:46:05;101676.34;;;5.76;82.87
57600;BME280;43426;43.594;24.334;2023-04-28T04:48:30;101669.34;;;5.86;82.07
57600;BME280;43426;43.594;24.334;2023-04-28T04:50:55;101662.25;;;5.74;82.75
57600;BME280;43426;43.594;24.334;2023-04-28T04:53:21;101703.03;;;6.13;81.95
57600;BME280;43426;43.594;24.334;2023-04-28T04:55:46;101713.75;;;6.13;82.74
57600;BME280;43426;43.594;24.334;2023-04-28T04:58:12;101692.47;;;6.23;81.98
57600;BME280;43426;43.594;24.334;2023-04-28T05:00:37;101671.00;;;6.11;81.99
57600;BME280;43426;43.594;24.334;2023-04-28T05:03:04;101701.78;;;6.41;82.35
57600;BME280;43426;43.594;24.334;2023-04-28T05:05:30;101701.16;;;6.94;80.34
57600;BME280;43426;43.594;24.334;2023-04-28T05:07:56;101719.88;;;7.40;78.87
57600;BME280;43426;43.594;24.334;2023-04-28T05:10:23;101713.75;;;7.38;79.30
57600;BME280;43426;43.594;24.334;2023-04-28T05:12:48;101729.84;;;7.81;78.14
57600;BME280;43426;43.594;24.334;2023-04-28T05:15:13;101726.63;;;7.99;78.51
57600;BME280;43426;43.594;24.334;2023-04-28T05:17:39;101702.78;;;7.94;76.95
57600;BME280;43426;43.594;24.334;2023-04-28T05:20:05;101737.63;;;8.17;77.06
57600;BME280;43426;43.594;24.334;2023-04-28T05:22:31;101707.78;;;8.41;76.03
57600;BME280;43426;43.594;24.334;2023-04-28T05:24:56;101735.50;;;8.53;75.77
57600;BME280;43426;43.594;24.334;2023-04-28T05:27:22;101734.28;;;8.25;76.34
57600;BME280;43426;43.594;24.334;2023-04-28T05:29:47;101715.59;;;7.81;78.27
57600;BME280;43426;43.594;24.334;2023-04-28T05:32:12;101711.88;;;7.82;79.51
57600;BME280;43426;43.594;24.334;2023-04-28T05:34:38;101711.75;;;7.83;79.28
57600;BME280;43426;43.594;24.334;2023-04-28T05:37:03;101715.78;;;7.89;79.31
57600;BME280;43426;43.594;24.334;2023-04-28T05:39:29;101719.53;;;7.98;79.54
57600;BME280;43426;43.594;24.334;2023-04-28T05:41:54;101728.97;;;8.13;79.74
57600;BME280;43426;43.594;24.334;2023-04-28T05:44:20;101753.91;;;8.37;79.78
57600;BME280;43426;43.594;24.334;2023-04-28T05:46:45;101724.47;;;8.56;78.95
57600;BME280;43426;43.594;24.334;2023-04-28T05:49:11;101754.06;;;8.87;78.00
57600;BME280;43426;43.594;24.334;2023-04-28T05:51:36;101721.56;;;8.79;78.39
57600;BME280;43426;43.594;24.334;2023-04-28T05:54:02;101727.88;;;8.89;77.14
57600;BME280;43426;43.594;24.334;2023-04-28T05:56:28;101748.50;;;9.10;76.81
57600;BME280;43426;43.594;24.334;2023-04-28T05:58:54;101704.44;;;8.80;77.18
57600;BME280;43426;43.594;24.334;2023-04-28T06:01:21;101726.78;;;9.01;77.44
57600;BME280;43426;43.594;24.334;2023-04-28T06:03:46;101729.13;;;8.85;78.53
57600;BME280;43426;43.594;24.334;2023-04-28T06:06:12;101748.66;;;8.87;78.63
57600;BME280;43426;43.594;24.334;2023-04-28T06:08:38;101752.66;;;8.93;79.28
57600;BME280;43426;43.594;24.334;2023-04-28T06:11:03;101745.31;;;9.65;76.64
57600;BME280;43426;43.594;24.334;2023-04-28T06:13:29;101748.91;;;9.85;77.56
57600;BME280;43426;43.594;24.334;2023-04-28T06:15:55;101746.06;;;10.06;75.23
57600;BME280;43426;43.594;24.334;2023-04-28T06:18:20;101713.56;;;9.98;73.95
57600;BME280;43426;43.594;24.334;2023-04-28T06:20:47;101748.22;;;10.79;73.14
57600;BME280;43426;43.594;24.334;2023-04-28T06:23:13;101748.38;;;11.33;70.69
57600;BME280;43426;43.594;24.334;2023-04-28T06:25:38;101753.28;;;11.66;68.82
57600;BME280;43426;43.594;24.334;2023-04-28T06:28:04;101752.13;;;11.86;67.63
57600;BME280;43426;43.594;24.334;2023-04-28T06:30:30;101746.97;;;11.75;67.45
57600;BME280;43426;43.594;24.334;2023-04-28T06:32:55;101745.13;;;12.12;66.46
57600;BME280;43426;43.594;24.334;2023-04-28T06:35:21;101762.09;;;12.40;64.77
57600;BME280;43426;43.594;24.334;2023-04-28T06:37:47;101722.75;;;12.27;63.86
57600;BME280;43426;43.594;24.334;2023-04-28T06:40:12;101767.47;;;12.58;64.10
57600;BME280;43426;43.594;24.334;2023-04-28T06:42:37;101745.91;;;12.74;64.52
57600;BME280;43426;43.594;24.334;2023-04-28T06:45:03;101753.38;;;12.81;62.95
57600;BME280;43426;43.594;24.334;2023-04-28T06:47:28;101764.03;;;12.74;63.69
57600;BME280;43426;43.594;24.334;2023-04-28T06:49:54;101758.84;;;12.63;63.65
57600;BME280;43426;43.594;24.334;2023-04-28T06:52:19;101748.81;;;12.29;64.15
57600;BME280;43426;43.594;24.334;2023-04-28T06:54:49;101757.13;;;12.09;64.81
57600;BME280;43426;43.594;24.334;2023-04-28T06:57:15;101781.81;;;12.14;64.65
57600;BME280;43426;43.594;24.334;2023-04-28T06:59:41;101774.25;;;12.36;64.14
57600;BME280;43426;43.594;24.334;2023-04-28T07:02:08;101781.94;;;12.75;64.29
57600;BME280;43426;43.594;24.334;2023-04-28T07:04:34;101767.09;;;13.14;62.69
57600;BME280;43426;43.594;24.334;2023-04-28T07:07:00;101755.41;;;13.56;60.76
57600;BME280;43426;43.594;24.334;2023-04-28T07:09:25;101763.59;;;14.13;60.50
57600;BME280;43426;43.594;24.334;2023-04-28T07:11:51;101781.59;;;14.56;57.34
57600;BME280;43426;43.594;24.334;2023-04-28T07:14:16;101769.78;;;14.96;56.11
57600;BME280;43426;43.594;24.334;2023-04-28T07:16:42;101779.78;;;15.12;56.94
57600;BME280;43426;43.594;24.334;2023-04-28T07:19:07;101777.94;;;15.44;53.83
57600;BME280;43426;43.594;24.334;2023-04-28T07:21:32;101781.72;;;15.35;54.21
57600;BME280;43426;43.594;24.334;2023-04-28T07:23:58;101780.19;;;15.32;56.04
57600;BME280;43426;43.594;24.334;2023-04-28T07:26:24;101782.94;;;15.24;54.79
57600;BME280;43426;43.594;24.334;2023-04-28T07:28:49;101784.94;;;14.82;55.45
57600;BME280;43426;43.594;24.334;2023-04-28T07:31:15;101778.53;;;14.75;55.51
57600;BME280;43426;43.594;24.334;2023-04-28T07:33:41;101782.06;;;14.84;54.05
57600;BME280;43426;43.594;24.334;2023-04-28T07:36:06;101752.41;;;14.50;55.21
57600;BME280;43426;43.594;24.334;2023-04-28T07:38:34;101774.44;;;14.71;57.00
57600;BME280;43426;43.594;24.334;2023-04-28T07:41:01;101770.16;;;14.85;55.21
57600;BME280;43426;43.594;24.334;2023-04-28T07:43:27;101768.50;;;14.59;56.08
57600;BME280;43426;43.594;24.334;2023-04-28T07:45:53;101764.06;;;14.83;56.40
57600;BME280;43426;43.594;24.334;2023-04-28T07:48:18;101773.16;;;15.15;54.43
57600;BME280;43426;43.594;24.334;2023-04-28T07:50:43;101754.38;;;15.60;54.21
57600;BME280;43426;43.594;24.334;2023-04-28T07:53:09;101768.47;;;15.95;54.23
57600;BME280;43426;43.594;24.334;2023-04-28T07:55:34;101727.94;;;16.00;53.39
57600;BME280;43426;43.594;24.334;2023-04-28T07:58:00;101762.22;;;16.47;51.45
57600;BME280;43426;43.594;24.334;2023-04-28T08:00:26;101764.75;;;16.34;52.99
57600;BME280;43426;43.594;24.334;2023-04-28T08:02:51;101757.75;;;16.55;53.35
57600;BME280;43426;43.594;24.334;2023-04-28T08:05:16;101763.34;;;16.91;52.05
57600;BME280;43426;43.594;24.334;2023-04-28T08:07:42;101769.53;;;16.85;51.00
57600;BME280;43426;43.594;24.334;2023-04-28T08:10:09;101723.31;;;16.24;50.83
57600;BME280;43426;43.594;24.334;2023-04-28T08:12:34;101748.19;;;15.97;53.11
57600;BME280;43426;43.594;24.334;2023-04-28T08:15:00;101756.50;;;15.49;54.46
57600;BME280;43426;43.594;24.334;2023-04-28T08:17:25;101730.31;;;14.69;55.66
57600;BME280;43426;43.594;24.334;2023-04-28T08:19:51;101765.81;;;14.68;56.51
57600;BME280;43426;43.594;24.334;2023-04-28T08:22:16;101723.72;;;14.55;58.91
57600;BME280;43426;43.594;24.334;2023-04-28T08:24:41;101760.16;;;14.94;56.46
57600;BME280;43426;43.594;24.334;2023-04-28T08:27:07;101745.22;;;15.21;53.68
57600;BME280;43426;43.594;24.334;2023-04-28T08:29:33;101748.75;;;15.61;55.26
57600;BME280;43426;43.594;24.334;2023-04-28T08:31:58;101757.16;;;16.44;53.51
57600;BME280;43426;43.594;24.334;2023-04-28T08:34:25;101730.25;;;16.94;52.17
57600;BME280;43426;43.594;24.334;2023-04-28T08:36:50;101753.84;;;17.17;49.56
57600;BME280;43426;43.594;24.334;2023-04-28T08:39:16;101753.56;;;17.12;50.34
57600;BME280;43426;43.594;24.334;2023-04-28T08:41:41;101739.28;;;17.46;50.62
57600;BME280;43426;43.594;24.334;2023-04-28T08:44:08;101731.50;;;18.01;49.27
57600;BME280;43426;43.594;24.334;2023-04-28T08:46:34;101725.72;;;17.75;49.07
57600;BME280;43426;43.594;24.334;2023-04-28T08:49:00;101708.78;;;18.01;50.97
57600;BME280;43426;43.594;24.334;2023-04-28T08:51:33;101706.66;;;18.53;48.63
57600;BME280;43426;43.594;24.334;2023-04-28T08:54:02;101718.44;;;18.53;46.40
57600;BME280;43426;43.594;24.334;2023-04-28T08:56:31;101732.16;;;17.88;45.88
57600;BME280;43426;43.594;24.334;2023-04-28T08:59:04;101735.44;;;17.41;47.84
57600;BME280;43426;43.594;24.334;2023-04-28T09:01:32;101714.97;;;17.30;49.15
57600;BME280;43426;43.594;24.334;2023-04-28T09:04:01;101706.53;;;17.10;48.00
57600;BME280;43426;43.594;24.334;2023-04-28T09:06:31;101703.84;;;16.95;49.42
57600;BME280;43426;43.594;24.334;2023-04-28T09:09:23;101719.13;;;17.11;47.72
57600;BME280;43426;43.594;24.334;2023-04-28T09:12:02;101658.25;;;17.47;48.10
57600;BME280;43426;43.594;24.334;2023-04-28T09:14:34;101707.84;;;18.44;45.90
57600;BME280;43426;43.594;24.334;2023-04-28T09:17:01;101698.50;;;18.31;44.06
57600;BME280;43426;43.594;24.334;2023-04-28T09:19:34;101673.25;;;18.23;46.56
57600;BME280;43426;43.594;24.334;2023-04-28T09:22:00;101699.22;;;18.75;45.14
57600;BME280;43426;43.594;24.334;2023-04-28T09:26:51;101677.94;;;18.64;46.48
57600;BME280;43426;43.594;24.334;2023-04-28T09:29:17;101667.38;;;18.26;44.00
57600;BME280;43426;43.594;24.334;2023-04-28T09:31:42;101690.53;;;18.30;47.19
57600;BME280;43426;43.594;24.334;2023-04-28T09:34:08;101687.38;;;18.61;46.04
57600;BME280;43426;43.594;24.334;2023-04-28T09:36:36;101690.97;;;18.68;47.00
57600;BME280;43426;43.594;24.334;2023-04-28T09:39:02;101673.59;;;18.83;44.08
57600;BME280;43426;43.594;24.334;2023-04-28T09:41:42;101678.59;;;18.72;44.34
57600;BME280;43426;43.594;24.334;2023-04-28T09:44:16;101677.19;;;18.83;45.74
57600;BME280;43426;43.594;24.334;2023-04-28T09:46:43;101664.63;;;18.26;44.02
57600;BME280;43426;43.594;24.334;2023-04-28T09:49:09;101671.16;;;17.96;45.92
57600;BME280;43426;43.594;24.334;2023-04-28T09:51:35;101657.47;;;18.25;40.53
57600;BME280;43426;43.594;24.334;2023-04-28T09:54:01;101670.47;;;18.86;43.58
57600;BME280;43426;43.594;24.334;2023-04-28T09:56:28;101658.66;;;19.34;40.95
57600;BME280;43426;43.594;24.334;2023-04-28T09:58:57;101667.75;;;20.35;38.51
57600;BME280;43426;43.594;24.334;2023-04-28T10:01:27;101661.38;;;20.61;38.06
57600;BME280;43426;43.594;24.334;2023-04-28T10:03:53;101660.41;;;20.08;36.85
57600;BME280;43426;43.594;24.334;2023-04-28T10:06:19;101665.91;;;19.82;38.48
57600;BME280;43426;43.594;24.334;2023-04-28T10:08:47;101656.59;;;19.43;39.80
57600;BME280;43426;43.594;24.334;2023-04-28T10:11:15;101639.63;;;18.99;39.44
57600;BME280;43426;43.594;24.334;2023-04-28T10:13:41;101635.09;;;18.36;40.20
57600;BME280;43426;43.594;24.334;2023-04-28T10:16:09;101636.53;;;18.03;41.39
57600;BME280;43426;43.594;24.334;2023-04-28T10:18:36;101633.66;;;18.12;41.92
57600;BME280;43426;43.594;24.334;2023-04-28T10:21:03;101654.81;;;18.31;43.18
57600;BME280;43426;43.594;24.334;2023-04-28T10:26:18;101654.88;;;18.10;42.18
57600;BME280;43426;43.594;24.334;2023-04-28T10:28:48;101619.09;;;17.33;41.11
57600;BME280;43426;43.594;24.334;2023-04-28T10:31:16;101636.81;;;16.56;42.12
57600;BME280;43426;43.594;24.334;2023-04-28T10:33:43;101652.53;;;16.54;44.02
57600;BME280;43426;43.594;24.334;2023-04-28T10:36:09;101654.66;;;16.73;45.62
57600;BME280;43426;43.594;24.334;2023-04-28T10:38:34;101646.00;;;16.84;43.47
57600;BME280;43426;43.594;24.334;2023-04-28T10:41:01;101636.06;;;16.62;45.00
57600;BME280;43426;43.594;24.334;2023-04-28T10:48:22;101646.47;;;17.03;44.23
57600;BME280;43426;43.594;24.334;2023-04-28T10:56:16;101633.09;;;17.73;43.87
57600;BME280;43426;43.594;24.334;2023-04-28T10:58:47;101625.44;;;17.83;43.10
57600;BME280;43426;43.594;24.334;2023-04-28T11:01:30;101627.09;;;17.78;40.41
57600;BME280;43426;43.594;24.334;2023-04-28T11:04:08;101615.19;;;17.21;40.71
57600;BME280;43426;43.594;24.334;2023-04-28T11:06:45;101620.41;;;17.37;39.89
57600;BME280;43426;43.594;24.334;2023-04-28T11:11:36;101616.25;;;17.63;40.09
57600;BME280;43426;43.594;24.334;2023-04-28T11:16:51;101605.19;;;18.28;40.04
57600;BME280;43426;43.594;24.334;2023-04-28T11:19:23;101615.34;;;18.41;37.36
57600;BME280;43426;43.594;24.334;2023-04-28T11:21:56;101595.47;;;18.18;37.91
57600;BME280;43426;43.594;24.334;2023-04-28T11:24:22;101588.09;;;18.61;38.77
57600;BME280;43426;43.594;24.334;2023-04-28T11:26:51;101580.56;;;19.25;37.07
57600;BME280;43426;43.594;24.334;2023-04-28T11:29:31;101594.28;;;19.65;35.71
57600;BME280;43426;43.594;24.334;2023-04-28T11:31:57;101597.53;;;20.34;34.95
57600;BME280;43426;43.594;24.334;2023-04-28T11:34:23;101586.94;;;20.57;31.63
57600;BME280;43426;43.594;24.334;2023-04-28T11:36:49;101592.50;;;20.24;32.90
57600;BME280;43426;43.594;24.334;2023-04-28T11:39:14;101592.78;;;19.69;34.77
57600;BME280;43426;43.594;24.334;2023-04-28T11:41:44;101583.75;;;19.95;33.55
57600;BME280;43426;43.594;24.334;2023-04-28T11:44:14;101567.94;;;19.77;32.86
57600;BME280;43426;43.594;24.334;2023-04-28T11:46:50;101581.22;;;19.47;35.31
57600;BME280;43426;43.594;24.334;2023-04-28T11:49:19;101587.09;;;19.57;33.41
57600;BME280;43426;43.594;24.334;2023-04-28T11:51:45;101550.25;;;19.46;36.35
57600;BME280;43426;43.594;24.334;2023-04-28T11:54:13;101583.72;;;19.68;34.39
57600;BME280;43426;43.594;24.334;2023-04-28T11:56:42;101563.41;;;20.30;35.73
57600;BME280;43426;43.594;24.334;2023-04-28T11:59:10;101572.66;;;21.26;32.87
57600;BME280;43426;43.594;24.334;2023-04-28T12:01:48;101522.63;;;21.49;33.78
57600;BME280;43426;43.594;24.334;2023-04-28T12:04:25;101578.09;;;21.65;29.74
57600;BME280;43426;43.594;24.334;2023-04-28T12:07:16;101569.66;;;21.34;29.49
57600;BME280;43426;43.594;24.334;2023-04-28T12:09:43;101547.16;;;21.19;32.06
57600;BME280;43426;43.594;24.334;2023-04-28T12:12:13;101561.28;;;21.80;28.72
57600;BME280;43426;43.594;24.334;2023-04-28T12:15:01;101540.59;;;21.96;28.95
57600;BME280;43426;43.594;24.334;2023-04-28T12:17:29;101535.53;;;21.74;28.34
57600;BME280;43426;43.594;24.334;2023-04-28T12:19:56;101546.56;;;21.92;30.45
57600;BME280;43426;43.594;24.334;2023-04-28T12:22:23;101533.72;;;22.23;30.20
57600;BME280;43426;43.594;24.334;2023-04-28T12:27:33;101536.00;;;22.64;30.51
57600;BME280;43426;43.594;24.334;2023-04-28T12:30:01;101512.66;;;22.54;32.47
57600;BME280;43426;43.594;24.334;2023-04-28T12:32:40;101519.31;;;22.47;31.78
57600;BME280;43426;43.594;24.334;2023-04-28T12:35:08;101509.59;;;22.25;33.26
57600;BME280;43426;43.594;24.334;2023-04-28T12:37:33;101528.50;;;22.71;30.66
57600;BME280;43426;43.594;24.334;2023-04-28T12:39:59;101526.44;;;22.96;30.37
57600;BME280;43426;43.594;24.334;2023-04-28T12:42:25;101516.81;;;22.87;30.27
57600;BME280;43426;43.594;24.334;2023-04-28T12:44:50;101479.59;;;21.68;33.38
57600;BME280;43426;43.594;24.334;2023-04-28T12:47:16;101514.09;;;21.07;34.04
57600;BME280;43426;43.594;24.334;2023-04-28T12:49:45;101500.91;;;20.52;34.29
57600;BME280;43426;43.594;24.334;2023-04-28T12:52:12;101513.09;;;21.26;32.68
57600;BME280;43426;43.594;24.334;2023-04-28T12:54:37;101514.22;;;21.19;32.51
57600;BME280;43426;43.594;24.334;2023-04-28T12:57:04;101494.47;;;21.10;33.37
57600;BME280;43426;43.594;24.334;2023-04-28T12:59:30;101504.75;;;20.89;33.65
57600;BME280;43426;43.594;24.334;2023-04-28T13:01:56;101513.59;;;20.46;33.76
57600;BME280;43426;43.594;24.334;2023-04-28T13:04:22;101505.75;;;19.98;34.64
57600;BME280;43426;43.594;24.334;2023-04-28T13:06:48;101494.81;;;19.78;36.61